Emmonak, Alaska
Current Conditions -  °F | °C
As of 12:56 AM on Thursday 23 Oct 2014 (Local Time) from PAEM Reporting Station
Overcast Overcast  
Wind Chill: -4°   Ceiling: 1700
Heat Index: -1°   Visibility: 2.5mi
Dew Point: -4°   Wind: 5mph
Humidity: 80%   Direction: 240°WSW
Pressure: 29.89"   Gusts: NA
Location:  62.78°N, 164.53°W
Report Text: PAEM 230856Z 24004KT 2 1/2SM BKN017 OVC023 M01/M04 A2989 RMK AO1 57003
Loading
Personal Weather Stations






























Interactive Weather Map
Tropical Storm Tracking
New forecast layout! Learn more

10-Day Weather Forecast

Advertisements
Track Severe Weather on mobile